sensor_id;sensor_type;location;lat;lon;timestamp;P1;durP1;ratioP1;P2;durP2;ratioP2
7104;SDS011;3594;42.152;24.714;2022-09-09T00:03:57;11.35;;;7.35;;
7104;SDS011;3594;42.152;24.714;2022-09-09T00:06:31;11.55;;;7.53;;
7104;SDS011;3594;42.152;24.714;2022-09-09T00:14:22;11.93;;;7.40;;
7104;SDS011;3594;42.152;24.714;2022-09-09T00:16:59;12.35;;;7.60;;
7104;SDS011;3594;42.152;24.714;2022-09-09T00:19:32;15.00;;;8.98;;
7104;SDS011;3594;42.152;24.714;2022-09-09T00:22:18;12.43;;;6.75;;
7104;SDS011;3594;42.152;24.714;2022-09-09T00:24:46;13.32;;;7.68;;
7104;SDS011;3594;42.152;24.714;2022-09-09T00:30:14;12.68;;;7.75;;
7104;SDS011;3594;42.152;24.714;2022-09-09T00:32:44;12.25;;;7.32;;
7104;SDS011;3594;42.152;24.714;2022-09-09T00:37:41;11.10;;;7.28;;
7104;SDS011;3594;42.152;24.714;2022-09-09T00:43:07;13.20;;;7.97;;
7104;SDS011;3594;42.152;24.714;2022-09-09T00:48:20;12.80;;;8.00;;
7104;SDS011;3594;42.152;24.714;2022-09-09T00:50:59;14.50;;;7.57;;
7104;SDS011;3594;42.152;24.714;2022-09-09T00:53:51;16.02;;;7.57;;
7104;SDS011;3594;42.152;24.714;2022-09-09T00:56:37;12.65;;;7.82;;
7104;SDS011;3594;42.152;24.714;2022-09-09T01:01:36;13.00;;;7.88;;
7104;SDS011;3594;42.152;24.714;2022-09-09T01:04:01;11.68;;;7.82;;
7104;SDS011;3594;42.152;24.714;2022-09-09T01:06:41;11.50;;;7.57;;
7104;SDS011;3594;42.152;24.714;2022-09-09T01:11:51;11.30;;;7.22;;
7104;SDS011;3594;42.152;24.714;2022-09-09T01:14:29;13.43;;;8.15;;
7104;SDS011;3594;42.152;24.714;2022-09-09T01:20:08;13.98;;;8.00;;
7104;SDS011;3594;42.152;24.714;2022-09-09T01:25:13;14.80;;;7.80;;
7104;SDS011;3594;42.152;24.714;2022-09-09T01:27:48;11.27;;;7.03;;
7104;SDS011;3594;42.152;24.714;2022-09-09T01:30:17;16.77;;;8.13;;
7104;SDS011;3594;42.152;24.714;2022-09-09T01:32:44;11.77;;;7.35;;
7104;SDS011;3594;42.152;24.714;2022-09-09T01:35:35;14.75;;;7.68;;
7104;SDS011;3594;42.152;24.714;2022-09-09T01:38:22;11.23;;;6.90;;
7104;SDS011;3594;42.152;24.714;2022-09-09T01:40:49;17.40;;;8.40;;
7104;SDS011;3594;42.152;24.714;2022-09-09T01:43:18;19.50;;;7.28;;
7104;SDS011;3594;42.152;24.714;2022-09-09T01:45:45;11.45;;;7.40;;
7104;SDS011;3594;42.152;24.714;2022-09-09T01:48:12;13.50;;;7.30;;
7104;SDS011;3594;42.152;24.714;2022-09-09T01:50:38;12.55;;;7.57;;
7104;SDS011;3594;42.152;24.714;2022-09-09T01:53:03;11.35;;;6.82;;
7104;SDS011;3594;42.152;24.714;2022-09-09T01:55:30;11.15;;;6.93;;
7104;SDS011;3594;42.152;24.714;2022-09-09T02:01:30;11.90;;;6.75;;
7104;SDS011;3594;42.152;24.714;2022-09-09T02:03:50;12.93;;;7.60;;
7104;SDS011;3594;42.152;24.714;2022-09-09T02:06:30;11.65;;;7.00;;
7104;SDS011;3594;42.152;24.714;2022-09-09T02:09:07;12.77;;;7.03;;
7104;SDS011;3594;42.152;24.714;2022-09-09T02:11:36;11.65;;;6.60;;
7104;SDS011;3594;42.152;24.714;2022-09-09T02:14:05;13.55;;;6.22;;
7104;SDS011;3594;42.152;24.714;2022-09-09T02:19:13;11.98;;;5.97;;
7104;SDS011;3594;42.152;24.714;2022-09-09T02:21:48;12.73;;;6.88;;
7104;SDS011;3594;42.152;24.714;2022-09-09T02:24:15;9.20;;;6.25;;
7104;SDS011;3594;42.152;24.714;2022-09-09T02:26:41;10.25;;;6.63;;
7104;SDS011;3594;42.152;24.714;2022-09-09T02:29:12;9.88;;;6.60;;
7104;SDS011;3594;42.152;24.714;2022-09-09T02:31:43;8.88;;;6.45;;
7104;SDS011;3594;42.152;24.714;2022-09-09T02:34:11;14.57;;;6.78;;
7104;SDS011;3594;42.152;24.714;2022-09-09T02:36:39;11.82;;;6.00;;
7104;SDS011;3594;42.152;24.714;2022-09-09T02:39:08;11.93;;;6.97;;
7104;SDS011;3594;42.152;24.714;2022-09-09T02:41:36;12.88;;;6.82;;
7104;SDS011;3594;42.152;24.714;2022-09-09T02:44:16;9.02;;;6.03;;
7104;SDS011;3594;42.152;24.714;2022-09-09T02:47:00;12.00;;;6.68;;
7104;SDS011;3594;42.152;24.714;2022-09-09T02:52:07;11.85;;;6.18;;
7104;SDS011;3594;42.152;24.714;2022-09-09T02:54:39;14.15;;;7.55;;
7104;SDS011;3594;42.152;24.714;2022-09-09T02:57:15;11.20;;;6.25;;
7104;SDS011;3594;42.152;24.714;2022-09-09T02:59:44;9.73;;;6.68;;
7104;SDS011;3594;42.152;24.714;2022-09-09T03:02:11;10.88;;;6.18;;
7104;SDS011;3594;42.152;24.714;2022-09-09T03:04:38;10.88;;;6.72;;
7104;SDS011;3594;42.152;24.714;2022-09-09T03:07:04;8.95;;;6.18;;
7104;SDS011;3594;42.152;24.714;2022-09-09T03:09:29;10.32;;;6.45;;
7104;SDS011;3594;42.152;24.714;2022-09-09T03:11:56;12.63;;;6.90;;
7104;SDS011;3594;42.152;24.714;2022-09-09T03:14:22;12.45;;;6.95;;
7104;SDS011;3594;42.152;24.714;2022-09-09T03:16:53;12.43;;;7.40;;
7104;SDS011;3594;42.152;24.714;2022-09-09T03:19:19;12.13;;;6.95;;
7104;SDS011;3594;42.152;24.714;2022-09-09T03:21:45;11.05;;;6.82;;
7104;SDS011;3594;42.152;24.714;2022-09-09T03:24:11;9.73;;;6.80;;
7104;SDS011;3594;42.152;24.714;2022-09-09T03:26:38;10.60;;;6.78;;
7104;SDS011;3594;42.152;24.714;2022-09-09T03:29:05;15.05;;;7.63;;
7104;SDS011;3594;42.152;24.714;2022-09-09T03:31:32;13.25;;;7.15;;
7104;SDS011;3594;42.152;24.714;2022-09-09T03:33:58;11.20;;;6.82;;
7104;SDS011;3594;42.152;24.714;2022-09-09T03:36:24;11.95;;;7.32;;
7104;SDS011;3594;42.152;24.714;2022-09-09T03:38:51;11.43;;;6.35;;
7104;SDS011;3594;42.152;24.714;2022-09-09T03:41:17;13.35;;;6.70;;
7104;SDS011;3594;42.152;24.714;2022-09-09T03:43:43;11.07;;;6.53;;
7104;SDS011;3594;42.152;24.714;2022-09-09T03:46:09;10.73;;;6.45;;
7104;SDS011;3594;42.152;24.714;2022-09-09T03:48:35;12.45;;;6.57;;
7104;SDS011;3594;42.152;24.714;2022-09-09T03:51:00;11.38;;;6.82;;
7104;SDS011;3594;42.152;24.714;2022-09-09T03:53:26;12.23;;;7.32;;
7104;SDS011;3594;42.152;24.714;2022-09-09T03:55:53;13.70;;;6.75;;
7104;SDS011;3594;42.152;24.714;2022-09-09T03:58:20;9.15;;;6.20;;
7104;SDS011;3594;42.152;24.714;2022-09-09T04:00:53;10.55;;;6.30;;
7104;SDS011;3594;42.152;24.714;2022-09-09T04:03:20;11.07;;;7.03;;
7104;SDS011;3594;42.152;24.714;2022-09-09T04:05:48;13.05;;;7.53;;
7104;SDS011;3594;42.152;24.714;2022-09-09T04:08:14;20.63;;;7.05;;
7104;SDS011;3594;42.152;24.714;2022-09-09T04:10:39;10.68;;;6.55;;
7104;SDS011;3594;42.152;24.714;2022-09-09T04:13:05;14.80;;;7.15;;
7104;SDS011;3594;42.152;24.714;2022-09-09T04:15:31;10.77;;;7.10;;
7104;SDS011;3594;42.152;24.714;2022-09-09T04:17:57;12.95;;;7.28;;
7104;SDS011;3594;42.152;24.714;2022-09-09T04:20:23;12.13;;;6.57;;
7104;SDS011;3594;42.152;24.714;2022-09-09T04:22:48;11.35;;;6.82;;
7104;SDS011;3594;42.152;24.714;2022-09-09T04:25:14;10.18;;;7.00;;
7104;SDS011;3594;42.152;24.714;2022-09-09T04:27:39;13.40;;;6.97;;
7104;SDS011;3594;42.152;24.714;2022-09-09T04:30:05;10.18;;;6.80;;
7104;SDS011;3594;42.152;24.714;2022-09-09T04:32:35;10.73;;;7.03;;
7104;SDS011;3594;42.152;24.714;2022-09-09T04:35:02;8.75;;;6.53;;
7104;SDS011;3594;42.152;24.714;2022-09-09T04:37:28;11.20;;;6.25;;
7104;SDS011;3594;42.152;24.714;2022-09-09T04:39:53;9.55;;;5.78;;
7104;SDS011;3594;42.152;24.714;2022-09-09T04:42:19;10.38;;;6.22;;
7104;SDS011;3594;42.152;24.714;2022-09-09T04:44:44;13.30;;;6.25;;
7104;SDS011;3594;42.152;24.714;2022-09-09T04:47:10;9.35;;;6.03;;
7104;SDS011;3594;42.152;24.714;2022-09-09T04:49:36;11.57;;;5.95;;
7104;SDS011;3594;42.152;24.714;2022-09-09T04:52:02;9.98;;;6.00;;
7104;SDS011;3594;42.152;24.714;2022-09-09T04:54:28;9.43;;;5.93;;
7104;SDS011;3594;42.152;24.714;2022-09-09T04:56:54;7.78;;;5.65;;
7104;SDS011;3594;42.152;24.714;2022-09-09T04:59:20;9.05;;;5.50;;
7104;SDS011;3594;42.152;24.714;2022-09-09T05:01:47;11.73;;;6.80;;
7104;SDS011;3594;42.152;24.714;2022-09-09T05:04:13;9.75;;;5.93;;
7104;SDS011;3594;42.152;24.714;2022-09-09T05:06:40;15.80;;;7.55;;
7104;SDS011;3594;42.152;24.714;2022-09-09T05:09:06;8.40;;;6.10;;
7104;SDS011;3594;42.152;24.714;2022-09-09T05:11:32;9.90;;;6.38;;
7104;SDS011;3594;42.152;24.714;2022-09-09T05:14:01;10.80;;;6.15;;
7104;SDS011;3594;42.152;24.714;2022-09-09T05:16:28;9.80;;;6.00;;
7104;SDS011;3594;42.152;24.714;2022-09-09T05:18:53;8.32;;;5.60;;
7104;SDS011;3594;42.152;24.714;2022-09-09T05:21:19;9.95;;;5.25;;
7104;SDS011;3594;42.152;24.714;2022-09-09T05:23:46;9.25;;;5.38;;
7104;SDS011;3594;42.152;24.714;2022-09-09T05:26:13;11.07;;;5.85;;
7104;SDS011;3594;42.152;24.714;2022-09-09T05:28:43;10.93;;;6.18;;
7104;SDS011;3594;42.152;24.714;2022-09-09T05:31:09;9.48;;;5.93;;
7104;SDS011;3594;42.152;24.714;2022-09-09T05:33:39;10.00;;;5.97;;
7104;SDS011;3594;42.152;24.714;2022-09-09T05:36:07;8.20;;;5.38;;
7104;SDS011;3594;42.152;24.714;2022-09-09T05:38:34;7.70;;;5.38;;
7104;SDS011;3594;42.152;24.714;2022-09-09T05:41:01;7.93;;;4.80;;
7104;SDS011;3594;42.152;24.714;2022-09-09T05:43:27;11.10;;;5.07;;
7104;SDS011;3594;42.152;24.714;2022-09-09T05:46:01;8.02;;;5.13;;
7104;SDS011;3594;42.152;24.714;2022-09-09T05:48:30;8.15;;;4.53;;
7104;SDS011;3594;42.152;24.714;2022-09-09T05:50:57;8.15;;;4.90;;
7104;SDS011;3594;42.152;24.714;2022-09-09T05:53:24;6.68;;;4.70;;
7104;SDS011;3594;42.152;24.714;2022-09-09T05:55:50;9.35;;;4.82;;
7104;SDS011;3594;42.152;24.714;2022-09-09T05:58:22;6.78;;;4.70;;
7104;SDS011;3594;42.152;24.714;2022-09-09T06:00:49;6.30;;;4.78;;
7104;SDS011;3594;42.152;24.714;2022-09-09T06:03:15;11.40;;;4.50;;
7104;SDS011;3594;42.152;24.714;2022-09-09T06:05:42;6.95;;;4.35;;
7104;SDS011;3594;42.152;24.714;2022-09-09T06:08:07;12.93;;;4.95;;
7104;SDS011;3594;42.152;24.714;2022-09-09T06:10:33;7.35;;;4.93;;
7104;SDS011;3594;42.152;24.714;2022-09-09T06:12:59;6.68;;;4.57;;
7104;SDS011;3594;42.152;24.714;2022-09-09T06:15:24;6.13;;;3.85;;
7104;SDS011;3594;42.152;24.714;2022-09-09T06:17:54;8.77;;;4.28;;
7104;SDS011;3594;42.152;24.714;2022-09-09T06:20:21;6.18;;;3.80;;
7104;SDS011;3594;42.152;24.714;2022-09-09T06:22:47;10.68;;;5.22;;
7104;SDS011;3594;42.152;24.714;2022-09-09T06:25:13;7.15;;;4.45;;
7104;SDS011;3594;42.152;24.714;2022-09-09T06:27:39;9.27;;;4.15;;
7104;SDS011;3594;42.152;24.714;2022-09-09T06:30:05;6.32;;;3.95;;
7104;SDS011;3594;42.152;24.714;2022-09-09T06:32:32;9.45;;;5.20;;
7104;SDS011;3594;42.152;24.714;2022-09-09T06:34:59;6.38;;;4.32;;
7104;SDS011;3594;42.152;24.714;2022-09-09T06:37:26;7.35;;;4.75;;
7104;SDS011;3594;42.152;24.714;2022-09-09T06:39:52;6.85;;;4.18;;
7104;SDS011;3594;42.152;24.714;2022-09-09T06:42:19;7.38;;;4.72;;
7104;SDS011;3594;42.152;24.714;2022-09-09T06:44:45;8.50;;;4.90;;
7104;SDS011;3594;42.152;24.714;2022-09-09T06:47:10;6.53;;;4.63;;
7104;SDS011;3594;42.152;24.714;2022-09-09T06:49:36;7.35;;;4.32;;
7104;SDS011;3594;42.152;24.714;2022-09-09T06:52:01;8.02;;;4.95;;
7104;SDS011;3594;42.152;24.714;2022-09-09T06:54:26;7.82;;;4.60;;
7104;SDS011;3594;42.152;24.714;2022-09-09T06:56:52;6.90;;;4.43;;
7104;SDS011;3594;42.152;24.714;2022-09-09T06:59:18;8.55;;;4.88;;
7104;SDS011;3594;42.152;24.714;2022-09-09T07:01:43;6.53;;;4.70;;
7104;SDS011;3594;42.152;24.714;2022-09-09T07:04:09;7.22;;;4.75;;
7104;SDS011;3594;42.152;24.714;2022-09-09T07:06:43;8.05;;;4.63;;
7104;SDS011;3594;42.152;24.714;2022-09-09T07:09:11;6.68;;;4.30;;
7104;SDS011;3594;42.152;24.714;2022-09-09T07:11:42;5.53;;;4.10;;
7104;SDS011;3594;42.152;24.714;2022-09-09T07:14:10;7.15;;;4.30;;
7104;SDS011;3594;42.152;24.714;2022-09-09T07:16:39;9.65;;;5.03;;
7104;SDS011;3594;42.152;24.714;2022-09-09T07:19:08;7.78;;;4.68;;
7104;SDS011;3594;42.152;24.714;2022-09-09T07:21:34;7.03;;;4.55;;
7104;SDS011;3594;42.152;24.714;2022-09-09T07:23:59;6.30;;;4.20;;
7104;SDS011;3594;42.152;24.714;2022-09-09T07:26:26;11.48;;;4.15;;
7104;SDS011;3594;42.152;24.714;2022-09-09T07:28:53;6.07;;;3.72;;
7104;SDS011;3594;42.152;24.714;2022-09-09T07:31:22;6.30;;;4.15;;
7104;SDS011;3594;42.152;24.714;2022-09-09T07:33:51;5.63;;;4.10;;
7104;SDS011;3594;42.152;24.714;2022-09-09T07:38:47;5.65;;;3.75;;
7104;SDS011;3594;42.152;24.714;2022-09-09T07:41:21;6.15;;;3.67;;
7104;SDS011;3594;42.152;24.714;2022-09-09T07:43:52;6.38;;;3.72;;
7104;SDS011;3594;42.152;24.714;2022-09-09T07:46:22;5.28;;;3.58;;
7104;SDS011;3594;42.152;24.714;2022-09-09T07:48:50;4.93;;;3.55;;
7104;SDS011;3594;42.152;24.714;2022-09-09T07:51:21;4.63;;;3.22;;
7104;SDS011;3594;42.152;24.714;2022-09-09T07:53:52;7.53;;;4.20;;
7104;SDS011;3594;42.152;24.714;2022-09-09T07:56:19;5.13;;;3.33;;
7104;SDS011;3594;42.152;24.714;2022-09-09T07:58:48;3.92;;;2.97;;
7104;SDS011;3594;42.152;24.714;2022-09-09T08:01:19;4.25;;;3.08;;
7104;SDS011;3594;42.152;24.714;2022-09-09T08:04:00;6.63;;;3.30;;
7104;SDS011;3594;42.152;24.714;2022-09-09T08:06:27;4.18;;;2.60;;
7104;SDS011;3594;42.152;24.714;2022-09-09T08:08:54;5.07;;;3.25;;
7104;SDS011;3594;42.152;24.714;2022-09-09T08:11:20;5.07;;;3.38;;
7104;SDS011;3594;42.152;24.714;2022-09-09T08:13:48;4.53;;;3.05;;
7104;SDS011;3594;42.152;24.714;2022-09-09T08:16:16;4.55;;;3.38;;
7104;SDS011;3594;42.152;24.714;2022-09-09T08:18:49;4.85;;;3.45;;
7104;SDS011;3594;42.152;24.714;2022-09-09T08:21:23;6.38;;;3.28;;
7104;SDS011;3594;42.152;24.714;2022-09-09T08:23:51;4.55;;;3.22;;
7104;SDS011;3594;42.152;24.714;2022-09-09T08:26:19;5.72;;;3.47;;
7104;SDS011;3594;42.152;24.714;2022-09-09T08:28:47;4.28;;;3.20;;
7104;SDS011;3594;42.152;24.714;2022-09-09T08:31:15;5.35;;;3.63;;
7104;SDS011;3594;42.152;24.714;2022-09-09T08:33:43;6.40;;;3.30;;
7104;SDS011;3594;42.152;24.714;2022-09-09T08:36:14;6.72;;;2.97;;
7104;SDS011;3594;42.152;24.714;2022-09-09T08:38:41;4.15;;;2.95;;
7104;SDS011;3594;42.152;24.714;2022-09-09T08:43:39;4.90;;;3.28;;
7104;SDS011;3594;42.152;24.714;2022-09-09T08:46:16;5.13;;;3.60;;
7104;SDS011;3594;42.152;24.714;2022-09-09T08:49:11;4.43;;;3.22;;
7104;SDS011;3594;42.152;24.714;2022-09-09T08:51:44;7.95;;;3.42;;
7104;SDS011;3594;42.152;24.714;2022-09-09T08:54:09;5.20;;;3.63;;
7104;SDS011;3594;42.152;24.714;2022-09-09T08:56:35;5.53;;;4.15;;
7104;SDS011;3594;42.152;24.714;2022-09-09T08:59:01;4.85;;;3.30;;
7104;SDS011;3594;42.152;24.714;2022-09-09T09:10:12;7.10;;;4.00;;
7104;SDS011;3594;42.152;24.714;2022-09-09T09:12:40;4.35;;;2.95;;
7104;SDS011;3594;42.152;24.714;2022-09-09T09:15:16;5.90;;;3.45;;
7104;SDS011;3594;42.152;24.714;2022-09-09T09:17:44;4.78;;;3.63;;
7104;SDS011;3594;42.152;24.714;2022-09-09T09:20:13;3.63;;;3.00;;
7104;SDS011;3594;42.152;24.714;2022-09-09T09:22:58;6.07;;;3.65;;
7104;SDS011;3594;42.152;24.714;2022-09-09T09:25:31;5.45;;;3.83;;
7104;SDS011;3594;42.152;24.714;2022-09-09T09:28:10;5.45;;;3.70;;
7104;SDS011;3594;42.152;24.714;2022-09-09T09:36:15;6.00;;;4.05;;
7104;SDS011;3594;42.152;24.714;2022-09-09T09:44:24;4.53;;;3.35;;
7104;SDS011;3594;42.152;24.714;2022-09-09T09:47:05;4.15;;;3.28;;
7104;SDS011;3594;42.152;24.714;2022-09-09T09:49:52;4.60;;;3.63;;
7104;SDS011;3594;42.152;24.714;2022-09-09T09:52:24;6.03;;;3.75;;
7104;SDS011;3594;42.152;24.714;2022-09-09T09:54:52;5.25;;;3.97;;
7104;SDS011;3594;42.152;24.714;2022-09-09T09:57:18;6.55;;;4.32;;
7104;SDS011;3594;42.152;24.714;2022-09-09T10:02:50;7.00;;;4.28;;
7104;SDS011;3594;42.152;24.714;2022-09-09T10:05:21;5.50;;;3.97;;
7104;SDS011;3594;42.152;24.714;2022-09-09T10:08:01;6.47;;;3.97;;
7104;SDS011;3594;42.152;24.714;2022-09-09T10:10:39;4.95;;;3.85;;
7104;SDS011;3594;42.152;24.714;2022-09-09T10:16:08;5.20;;;3.92;;
7104;SDS011;3594;42.152;24.714;2022-09-09T10:21:38;6.07;;;4.43;;
7104;SDS011;3594;42.152;24.714;2022-09-09T10:27:03;9.27;;;4.60;;
7104;SDS011;3594;42.152;24.714;2022-09-09T10:32:36;7.20;;;4.70;;
7104;SDS011;3594;42.152;24.714;2022-09-09T10:37:55;5.88;;;4.47;;
7104;SDS011;3594;42.152;24.714;2022-09-09T10:40:42;6.68;;;4.53;;
7104;SDS011;3594;42.152;24.714;2022-09-09T10:51:20;6.30;;;4.53;;
7104;SDS011;3594;42.152;24.714;2022-09-09T10:56:26;7.05;;;4.50;;
7104;SDS011;3594;42.152;24.714;2022-09-09T10:58:56;7.13;;;4.85;;
7104;SDS011;3594;42.152;24.714;2022-09-09T11:01:28;7.13;;;4.95;;
7104;SDS011;3594;42.152;24.714;2022-09-09T11:04:21;7.35;;;4.90;;
7104;SDS011;3594;42.152;24.714;2022-09-09T11:06:52;6.30;;;4.22;;
7104;SDS011;3594;42.152;24.714;2022-09-09T11:09:31;6.78;;;4.50;;
7104;SDS011;3594;42.152;24.714;2022-09-09T11:12:01;6.38;;;4.47;;
7104;SDS011;3594;42.152;24.714;2022-09-09T11:14:47;8.40;;;4.43;;
7104;SDS011;3594;42.152;24.714;2022-09-09T11:17:20;8.82;;;5.30;;
7104;SDS011;3594;42.152;24.714;2022-09-09T11:19:51;7.65;;;4.95;;
7104;SDS011;3594;42.152;24.714;2022-09-09T11:22:32;7.00;;;4.43;;
7104;SDS011;3594;42.152;24.714;2022-09-09T11:25:21;8.57;;;5.10;;
7104;SDS011;3594;42.152;24.714;2022-09-09T11:33:55;6.10;;;4.35;;
7104;SDS011;3594;42.152;24.714;2022-09-09T11:42:05;5.90;;;4.38;;
7104;SDS011;3594;42.152;24.714;2022-09-09T11:44:51;7.35;;;4.63;;
7104;SDS011;3594;42.152;24.714;2022-09-09T11:47:19;7.10;;;4.13;;
7104;SDS011;3594;42.152;24.714;2022-09-09T11:49:54;6.93;;;4.30;;
7104;SDS011;3594;42.152;24.714;2022-09-09T11:52:37;5.88;;;4.15;;
7104;SDS011;3594;42.152;24.714;2022-09-09T11:57:56;5.80;;;4.03;;
7104;SDS011;3594;42.152;24.714;2022-09-09T12:00:30;5.50;;;3.80;;
7104;SDS011;3594;42.152;24.714;2022-09-09T12:03:02;5.03;;;3.90;;
7104;SDS011;3594;42.152;24.714;2022-09-09T12:05:42;5.63;;;3.92;;
7104;SDS011;3594;42.152;24.714;2022-09-09T12:08:11;6.07;;;4.18;;
7104;SDS011;3594;42.152;24.714;2022-09-09T12:10:57;5.53;;;3.92;;
7104;SDS011;3594;42.152;24.714;2022-09-09T12:13:28;6.43;;;4.28;;
7104;SDS011;3594;42.152;24.714;2022-09-09T12:15:54;7.63;;;4.15;;
7104;SDS011;3594;42.152;24.714;2022-09-09T12:21:16;7.25;;;4.65;;
7104;SDS011;3594;42.152;24.714;2022-09-09T12:24:10;7.00;;;4.75;;
7104;SDS011;3594;42.152;24.714;2022-09-09T12:26:43;5.53;;;4.13;;
7104;SDS011;3594;42.152;24.714;2022-09-09T12:29:24;6.70;;;4.28;;
7104;SDS011;3594;42.152;24.714;2022-09-09T12:31:54;5.15;;;3.67;;
7104;SDS011;3594;42.152;24.714;2022-09-09T12:34:30;6.28;;;4.35;;
7104;SDS011;3594;42.152;24.714;2022-09-09T12:37:08;7.07;;;4.47;;
7104;SDS011;3594;42.152;24.714;2022-09-09T12:39:57;5.65;;;4.03;;
7104;SDS011;3594;42.152;24.714;2022-09-09T12:42:24;5.72;;;3.72;;
7104;SDS011;3594;42.152;24.714;2022-09-09T12:44:58;5.63;;;3.88;;
7104;SDS011;3594;42.152;24.714;2022-09-09T12:48:10;5.88;;;3.75;;
7104;SDS011;3594;42.152;24.714;2022-09-09T12:52:53;7.57;;;4.72;;
7104;SDS011;3594;42.152;24.714;2022-09-09T12:55:33;5.65;;;4.18;;
7104;SDS011;3594;42.152;24.714;2022-09-09T12:58:01;5.43;;;4.05;;
7104;SDS011;3594;42.152;24.714;2022-09-09T13:00:31;6.05;;;4.07;;
7104;SDS011;3594;42.152;24.714;2022-09-09T13:02:59;5.60;;;4.25;;
7104;SDS011;3594;42.152;24.714;2022-09-09T13:05:36;6.90;;;4.38;;
7104;SDS011;3594;42.152;24.714;2022-09-09T13:08:07;5.53;;;4.20;;
7104;SDS011;3594;42.152;24.714;2022-09-09T13:10:57;5.40;;;4.07;;
7104;SDS011;3594;42.152;24.714;2022-09-09T13:13:28;4.88;;;3.90;;
7104;SDS011;3594;42.152;24.714;2022-09-09T13:16:03;5.90;;;4.25;;
7104;SDS011;3594;42.152;24.714;2022-09-09T13:18:33;10.07;;;5.03;;
7104;SDS011;3594;42.152;24.714;2022-09-09T13:21:00;4.60;;;3.63;;
7104;SDS011;3594;42.152;24.714;2022-09-09T13:23:27;6.22;;;4.25;;
7104;SDS011;3594;42.152;24.714;2022-09-09T13:25:55;6.50;;;4.60;;
7104;SDS011;3594;42.152;24.714;2022-09-09T13:28:24;5.55;;;3.90;;
7104;SDS011;3594;42.152;24.714;2022-09-09T13:33:29;5.85;;;4.30;;
7104;SDS011;3594;42.152;24.714;2022-09-09T13:36:09;6.03;;;4.32;;
7104;SDS011;3594;42.152;24.714;2022-09-09T13:38:40;5.82;;;4.10;;
7104;SDS011;3594;42.152;24.714;2022-09-09T13:41:20;4.88;;;3.97;;
7104;SDS011;3594;42.152;24.714;2022-09-09T13:43:48;5.32;;;4.00;;
7104;SDS011;3594;42.152;24.714;2022-09-09T13:46:30;6.82;;;4.25;;
7104;SDS011;3594;42.152;24.714;2022-09-09T13:48:59;6.53;;;4.47;;
7104;SDS011;3594;42.152;24.714;2022-09-09T13:51:45;7.18;;;4.22;;
7104;SDS011;3594;42.152;24.714;2022-09-09T13:54:14;6.22;;;4.43;;
7104;SDS011;3594;42.152;24.714;2022-09-09T13:56:41;8.43;;;4.40;;
7104;SDS011;3594;42.152;24.714;2022-09-09T13:59:12;6.75;;;4.60;;
7104;SDS011;3594;42.152;24.714;2022-09-09T14:01:42;7.38;;;4.72;;
7104;SDS011;3594;42.152;24.714;2022-09-09T14:04:08;7.07;;;4.65;;
7104;SDS011;3594;42.152;24.714;2022-09-09T14:06:35;5.38;;;4.28;;
7104;SDS011;3594;42.152;24.714;2022-09-09T14:09:05;7.25;;;4.95;;
7104;SDS011;3594;42.152;24.714;2022-09-09T14:11:32;9.93;;;5.63;;
7104;SDS011;3594;42.152;24.714;2022-09-09T14:13:58;8.18;;;5.68;;
7104;SDS011;3594;42.152;24.714;2022-09-09T14:16:23;8.68;;;5.15;;
7104;SDS011;3594;42.152;24.714;2022-09-09T14:18:48;7.40;;;5.15;;
7104;SDS011;3594;42.152;24.714;2022-09-09T14:21:14;9.70;;;5.18;;
7104;SDS011;3594;42.152;24.714;2022-09-09T14:23:40;7.13;;;5.20;;
7104;SDS011;3594;42.152;24.714;2022-09-09T14:26:06;6.75;;;4.82;;
7104;SDS011;3594;42.152;24.714;2022-09-09T14:28:32;8.30;;;4.45;;
7104;SDS011;3594;42.152;24.714;2022-09-09T14:30:59;7.15;;;4.90;;
7104;SDS011;3594;42.152;24.714;2022-09-09T14:33:25;10.05;;;5.10;;
7104;SDS011;3594;42.152;24.714;2022-09-09T14:35:57;8.05;;;5.43;;
7104;SDS011;3594;42.152;24.714;2022-09-09T14:38:24;6.22;;;4.78;;
7104;SDS011;3594;42.152;24.714;2022-09-09T14:40:53;10.15;;;5.32;;
7104;SDS011;3594;42.152;24.714;2022-09-09T14:43:19;8.20;;;4.55;;
7104;SDS011;3594;42.152;24.714;2022-09-09T14:45:45;7.80;;;5.40;;
7104;SDS011;3594;42.152;24.714;2022-09-09T14:48:12;7.75;;;4.90;;
7104;SDS011;3594;42.152;24.714;2022-09-09T14:50:39;7.50;;;5.15;;
7104;SDS011;3594;42.152;24.714;2022-09-09T14:53:06;7.50;;;5.05;;
7104;SDS011;3594;42.152;24.714;2022-09-09T14:55:32;10.02;;;5.40;;
7104;SDS011;3594;42.152;24.714;2022-09-09T14:57:58;7.03;;;5.32;;
7104;SDS011;3594;42.152;24.714;2022-09-09T15:00:23;5.13;;;4.03;;
7104;SDS011;3594;42.152;24.714;2022-09-09T15:02:52;7.90;;;5.45;;
7104;SDS011;3594;42.152;24.714;2022-09-09T15:05:18;7.78;;;5.03;;
7104;SDS011;3594;42.152;24.714;2022-09-09T15:07:44;7.82;;;4.97;;
7104;SDS011;3594;42.152;24.714;2022-09-09T15:10:10;8.73;;;5.32;;
7104;SDS011;3594;42.152;24.714;2022-09-09T15:12:36;7.97;;;5.00;;
7104;SDS011;3594;42.152;24.714;2022-09-09T15:15:02;7.35;;;5.07;;
7104;SDS011;3594;42.152;24.714;2022-09-09T15:17:28;8.57;;;5.50;;
7104;SDS011;3594;42.152;24.714;2022-09-09T15:19:53;10.18;;;5.30;;
7104;SDS011;3594;42.152;24.714;2022-09-09T15:22:20;10.02;;;5.05;;
7104;SDS011;3594;42.152;24.714;2022-09-09T15:24:45;11.25;;;5.38;;
7104;SDS011;3594;42.152;24.714;2022-09-09T15:27:10;7.47;;;4.82;;
7104;SDS011;3594;42.152;24.714;2022-09-09T15:29:36;6.43;;;4.28;;
7104;SDS011;3594;42.152;24.714;2022-09-09T15:32:03;8.32;;;5.15;;
7104;SDS011;3594;42.152;24.714;2022-09-09T15:34:29;7.65;;;4.88;;
7104;SDS011;3594;42.152;24.714;2022-09-09T15:36:54;6.68;;;4.72;;
7104;SDS011;3594;42.152;24.714;2022-09-09T15:39:20;5.90;;;4.10;;
7104;SDS011;3594;42.152;24.714;2022-09-09T15:41:46;7.75;;;4.53;;
7104;SDS011;3594;42.152;24.714;2022-09-09T15:44:13;6.97;;;4.25;;
7104;SDS011;3594;42.152;24.714;2022-09-09T15:46:44;7.68;;;4.93;;
7104;SDS011;3594;42.152;24.714;2022-09-09T15:49:15;7.10;;;4.65;;
7104;SDS011;3594;42.152;24.714;2022-09-09T15:51:47;6.88;;;4.00;;
7104;SDS011;3594;42.152;24.714;2022-09-09T15:54:17;6.63;;;4.43;;
7104;SDS011;3594;42.152;24.714;2022-09-09T15:56:45;6.68;;;4.60;;
7104;SDS011;3594;42.152;24.714;2022-09-09T15:59:13;5.75;;;4.45;;
7104;SDS011;3594;42.152;24.714;2022-09-09T16:01:39;5.88;;;4.20;;
7104;SDS011;3594;42.152;24.714;2022-09-09T16:04:05;5.68;;;4.03;;
7104;SDS011;3594;42.152;24.714;2022-09-09T16:06:31;7.25;;;4.20;;
7104;SDS011;3594;42.152;24.714;2022-09-09T16:08:58;5.97;;;4.10;;
7104;SDS011;3594;42.152;24.714;2022-09-09T16:11:27;6.88;;;3.90;;
7104;SDS011;3594;42.152;24.714;2022-09-09T16:13:57;6.47;;;4.30;;
7104;SDS011;3594;42.152;24.714;2022-09-09T16:16:25;7.05;;;4.03;;
7104;SDS011;3594;42.152;24.714;2022-09-09T16:18:53;6.80;;;4.10;;
7104;SDS011;3594;42.152;24.714;2022-09-09T16:21:22;6.20;;;3.85;;
7104;SDS011;3594;42.152;24.714;2022-09-09T16:23:55;7.82;;;4.97;;
7104;SDS011;3594;42.152;24.714;2022-09-09T16:26:22;8.10;;;4.70;;
7104;SDS011;3594;42.152;24.714;2022-09-09T16:28:48;5.72;;;4.20;;
7104;SDS011;3594;42.152;24.714;2022-09-09T16:31:18;5.70;;;3.55;;
7104;SDS011;3594;42.152;24.714;2022-09-09T16:33:45;5.78;;;3.95;;
7104;SDS011;3594;42.152;24.714;2022-09-09T16:36:14;8.45;;;5.22;;
7104;SDS011;3594;42.152;24.714;2022-09-09T16:38:41;7.97;;;5.25;;
7104;SDS011;3594;42.152;24.714;2022-09-09T16:41:11;8.13;;;4.95;;
7104;SDS011;3594;42.152;24.714;2022-09-09T16:43:37;7.22;;;5.10;;
7104;SDS011;3594;42.152;24.714;2022-09-09T16:46:14;9.77;;;5.50;;
7104;SDS011;3594;42.152;24.714;2022-09-09T16:48:43;8.60;;;5.55;;
7104;SDS011;3594;42.152;24.714;2022-09-09T16:51:14;8.57;;;5.53;;
7104;SDS011;3594;42.152;24.714;2022-09-09T16:53:45;8.32;;;5.53;;
7104;SDS011;3594;42.152;24.714;2022-09-09T16:56:13;8.88;;;4.90;;
7104;SDS011;3594;42.152;24.714;2022-09-09T16:58:41;7.85;;;5.03;;
7104;SDS011;3594;42.152;24.714;2022-09-09T17:01:10;7.70;;;5.55;;
7104;SDS011;3594;42.152;24.714;2022-09-09T17:03:39;7.20;;;4.50;;
7104;SDS011;3594;42.152;24.714;2022-09-09T17:06:08;6.05;;;4.22;;
7104;SDS011;3594;42.152;24.714;2022-09-09T17:08:35;7.93;;;4.65;;